sensor_id;sensor_type;location;lat;lon;timestamp;P1;durP1;ratioP1;P2;durP2;ratioP2
20069;SDS011;10195;50.868;4.382;2024-01-25T00:02:08;59.77;;;9.63;;
20069;SDS011;10195;50.868;4.382;2024-01-25T00:04:33;73.57;;;10.03;;
20069;SDS011;10195;50.868;4.382;2024-01-25T00:06:59;68.63;;;11.33;;
20069;SDS011;10195;50.868;4.382;2024-01-25T00:09:25;54.20;;;10.10;;
20069;SDS011;10195;50.868;4.382;2024-01-25T00:11:50;52.27;;;9.20;;
20069;SDS011;10195;50.868;4.382;2024-01-25T00:14:16;58.30;;;9.13;;
20069;SDS011;10195;50.868;4.382;2024-01-25T00:16:42;70.80;;;11.40;;
20069;SDS011;10195;50.868;4.382;2024-01-25T00:19:08;67.63;;;11.70;;
20069;SDS011;10195;50.868;4.382;2024-01-25T00:21:33;77.93;;;10.90;;
20069;SDS011;10195;50.868;4.382;2024-01-25T00:23:59;71.93;;;10.83;;
20069;SDS011;10195;50.868;4.382;2024-01-25T00:26:25;69.83;;;9.83;;
20069;SDS011;10195;50.868;4.382;2024-01-25T00:28:50;56.47;;;9.03;;
20069;SDS011;10195;50.868;4.382;2024-01-25T00:31:16;75.40;;;10.47;;
20069;SDS011;10195;50.868;4.382;2024-01-25T00:33:42;66.90;;;9.47;;
20069;SDS011;10195;50.868;4.382;2024-01-25T00:36:07;67.27;;;10.20;;
20069;SDS011;10195;50.868;4.382;2024-01-25T00:38:34;60.90;;;8.77;;
20069;SDS011;10195;50.868;4.382;2024-01-25T00:41:00;71.23;;;11.60;;
20069;SDS011;10195;50.868;4.382;2024-01-25T00:43:26;61.67;;;8.93;;
20069;SDS011;10195;50.868;4.382;2024-01-25T00:45:52;63.57;;;9.77;;
20069;SDS011;10195;50.868;4.382;2024-01-25T00:48:21;62.97;;;9.10;;
20069;SDS011;10195;50.868;4.382;2024-01-25T00:50:46;56.40;;;10.03;;
20069;SDS011;10195;50.868;4.382;2024-01-25T00:53:12;68.93;;;11.17;;
20069;SDS011;10195;50.868;4.382;2024-01-25T00:55:38;69.13;;;9.87;;
20069;SDS011;10195;50.868;4.382;2024-01-25T00:58:05;61.03;;;10.33;;
20069;SDS011;10195;50.868;4.382;2024-01-25T01:00:31;75.83;;;10.37;;
20069;SDS011;10195;50.868;4.382;2024-01-25T01:02:57;60.00;;;10.27;;
20069;SDS011;10195;50.868;4.382;2024-01-25T01:05:24;67.97;;;10.07;;
20069;SDS011;10195;50.868;4.382;2024-01-25T01:07:50;58.57;;;8.50;;
20069;SDS011;10195;50.868;4.382;2024-01-25T01:10:16;69.03;;;10.73;;
20069;SDS011;10195;50.868;4.382;2024-01-25T01:12:45;76.83;;;10.13;;
20069;SDS011;10195;50.868;4.382;2024-01-25T01:15:10;67.50;;;8.93;;
20069;SDS011;10195;50.868;4.382;2024-01-25T01:17:36;62.17;;;9.13;;
20069;SDS011;10195;50.868;4.382;2024-01-25T01:20:01;59.73;;;9.47;;
20069;SDS011;10195;50.868;4.382;2024-01-25T01:22:28;59.13;;;8.83;;
20069;SDS011;10195;50.868;4.382;2024-01-25T01:24:53;70.57;;;11.27;;
20069;SDS011;10195;50.868;4.382;2024-01-25T01:27:19;66.63;;;9.87;;
20069;SDS011;10195;50.868;4.382;2024-01-25T01:29:46;74.17;;;10.10;;
20069;SDS011;10195;50.868;4.382;2024-01-25T01:32:11;70.77;;;11.07;;
20069;SDS011;10195;50.868;4.382;2024-01-25T01:34:37;68.70;;;10.80;;
20069;SDS011;10195;50.868;4.382;2024-01-25T01:37:02;69.73;;;9.47;;
20069;SDS011;10195;50.868;4.382;2024-01-25T01:39:28;56.10;;;9.03;;
20069;SDS011;10195;50.868;4.382;2024-01-25T01:41:54;64.20;;;10.53;;
20069;SDS011;10195;50.868;4.382;2024-01-25T01:44:19;82.53;;;10.87;;
20069;SDS011;10195;50.868;4.382;2024-01-25T01:46:45;60.57;;;9.17;;
20069;SDS011;10195;50.868;4.382;2024-01-25T01:49:12;61.07;;;9.37;;
20069;SDS011;10195;50.868;4.382;2024-01-25T01:51:39;66.33;;;9.17;;
20069;SDS011;10195;50.868;4.382;2024-01-25T01:54:07;71.63;;;9.73;;
20069;SDS011;10195;50.868;4.382;2024-01-25T01:56:34;57.03;;;9.27;;
20069;SDS011;10195;50.868;4.382;2024-01-25T01:59:00;61.30;;;9.43;;
20069;SDS011;10195;50.868;4.382;2024-01-25T02:01:27;59.47;;;9.00;;
20069;SDS011;10195;50.868;4.382;2024-01-25T02:03:54;66.33;;;9.40;;
20069;SDS011;10195;50.868;4.382;2024-01-25T02:06:20;59.33;;;9.10;;
20069;SDS011;10195;50.868;4.382;2024-01-25T02:08:48;65.10;;;9.57;;
20069;SDS011;10195;50.868;4.382;2024-01-25T02:11:16;58.77;;;9.77;;
20069;SDS011;10195;50.868;4.382;2024-01-25T02:13:42;65.67;;;9.13;;
20069;SDS011;10195;50.868;4.382;2024-01-25T02:16:07;56.07;;;9.87;;
20069;SDS011;10195;50.868;4.382;2024-01-25T02:18:33;62.17;;;10.10;;
20069;SDS011;10195;50.868;4.382;2024-01-25T02:20:59;60.27;;;9.27;;
20069;SDS011;10195;50.868;4.382;2024-01-25T02:23:25;66.73;;;9.20;;
20069;SDS011;10195;50.868;4.382;2024-01-25T02:25:51;65.67;;;9.70;;
20069;SDS011;10195;50.868;4.382;2024-01-25T02:28:16;67.33;;;8.87;;
20069;SDS011;10195;50.868;4.382;2024-01-25T02:30:42;61.30;;;8.90;;
20069;SDS011;10195;50.868;4.382;2024-01-25T02:33:08;55.00;;;8.87;;
20069;SDS011;10195;50.868;4.382;2024-01-25T02:35:33;63.33;;;8.07;;
20069;SDS011;10195;50.868;4.382;2024-01-25T02:37:59;65.50;;;10.13;;
20069;SDS011;10195;50.868;4.382;2024-01-25T02:40:25;60.73;;;8.90;;
20069;SDS011;10195;50.868;4.382;2024-01-25T02:42:51;50.83;;;8.13;;
20069;SDS011;10195;50.868;4.382;2024-01-25T02:45:16;68.90;;;9.40;;
20069;SDS011;10195;50.868;4.382;2024-01-25T02:47:42;57.93;;;9.40;;
20069;SDS011;10195;50.868;4.382;2024-01-25T02:50:08;64.73;;;9.63;;
20069;SDS011;10195;50.868;4.382;2024-01-25T02:52:34;58.50;;;9.43;;
20069;SDS011;10195;50.868;4.382;2024-01-25T02:55:00;62.43;;;9.63;;
20069;SDS011;10195;50.868;4.382;2024-01-25T02:57:25;63.90;;;8.63;;
20069;SDS011;10195;50.868;4.382;2024-01-25T02:59:56;58.97;;;9.27;;
20069;SDS011;10195;50.868;4.382;2024-01-25T03:02:22;56.57;;;8.00;;
20069;SDS011;10195;50.868;4.382;2024-01-25T03:04:47;69.03;;;9.27;;
20069;SDS011;10195;50.868;4.382;2024-01-25T03:07:13;57.67;;;8.43;;
20069;SDS011;10195;50.868;4.382;2024-01-25T03:09:39;63.07;;;7.90;;
20069;SDS011;10195;50.868;4.382;2024-01-25T03:12:04;60.07;;;9.13;;
20069;SDS011;10195;50.868;4.382;2024-01-25T03:14:30;57.27;;;8.63;;
20069;SDS011;10195;50.868;4.382;2024-01-25T03:16:56;72.53;;;9.00;;
20069;SDS011;10195;50.868;4.382;2024-01-25T03:19:25;58.90;;;8.97;;
20069;SDS011;10195;50.868;4.382;2024-01-25T03:21:52;53.83;;;8.97;;
20069;SDS011;10195;50.868;4.382;2024-01-25T03:24:18;59.27;;;8.20;;
20069;SDS011;10195;50.868;4.382;2024-01-25T03:26:43;67.00;;;10.30;;
20069;SDS011;10195;50.868;4.382;2024-01-25T03:29:09;53.17;;;8.57;;
20069;SDS011;10195;50.868;4.382;2024-01-25T03:31:35;60.33;;;8.90;;
20069;SDS011;10195;50.868;4.382;2024-01-25T03:34:01;64.70;;;10.77;;
20069;SDS011;10195;50.868;4.382;2024-01-25T03:36:27;79.77;;;8.90;;
20069;SDS011;10195;50.868;4.382;2024-01-25T03:38:54;66.20;;;9.73;;
20069;SDS011;10195;50.868;4.382;2024-01-25T03:41:20;50.97;;;8.40;;
20069;SDS011;10195;50.868;4.382;2024-01-25T03:43:47;60.47;;;9.27;;
20069;SDS011;10195;50.868;4.382;2024-01-25T03:46:16;59.70;;;7.83;;
20069;SDS011;10195;50.868;4.382;2024-01-25T03:48:42;64.33;;;7.77;;
20069;SDS011;10195;50.868;4.382;2024-01-25T03:51:08;69.43;;;9.57;;
20069;SDS011;10195;50.868;4.382;2024-01-25T03:53:34;72.93;;;9.53;;
20069;SDS011;10195;50.868;4.382;2024-01-25T03:56:00;64.07;;;9.30;;
20069;SDS011;10195;50.868;4.382;2024-01-25T03:58:25;73.60;;;8.73;;
20069;SDS011;10195;50.868;4.382;2024-01-25T04:00:51;52.60;;;7.77;;
20069;SDS011;10195;50.868;4.382;2024-01-25T04:03:17;43.63;;;8.00;;
20069;SDS011;10195;50.868;4.382;2024-01-25T04:05:43;69.57;;;10.17;;
20069;SDS011;10195;50.868;4.382;2024-01-25T04:08:08;55.60;;;9.10;;
20069;SDS011;10195;50.868;4.382;2024-01-25T04:10:34;53.00;;;7.13;;
20069;SDS011;10195;50.868;4.382;2024-01-25T04:13:03;45.50;;;9.17;;
20069;SDS011;10195;50.868;4.382;2024-01-25T04:15:32;71.63;;;9.93;;
20069;SDS011;10195;50.868;4.382;2024-01-25T04:17:58;69.03;;;9.17;;
20069;SDS011;10195;50.868;4.382;2024-01-25T04:20:23;55.03;;;8.77;;
20069;SDS011;10195;50.868;4.382;2024-01-25T04:22:49;58.60;;;9.63;;
20069;SDS011;10195;50.868;4.382;2024-01-25T04:25:15;63.43;;;8.57;;
20069;SDS011;10195;50.868;4.382;2024-01-25T04:27:41;56.20;;;9.87;;
20069;SDS011;10195;50.868;4.382;2024-01-25T04:30:07;60.93;;;9.43;;
20069;SDS011;10195;50.868;4.382;2024-01-25T04:32:33;69.03;;;8.43;;
20069;SDS011;10195;50.868;4.382;2024-01-25T04:34:59;69.67;;;8.90;;
20069;SDS011;10195;50.868;4.382;2024-01-25T04:37:25;78.33;;;9.10;;
20069;SDS011;10195;50.868;4.382;2024-01-25T04:39:50;59.57;;;8.50;;
20069;SDS011;10195;50.868;4.382;2024-01-25T04:42:16;54.00;;;9.30;;
20069;SDS011;10195;50.868;4.382;2024-01-25T04:44:42;66.10;;;8.50;;
20069;SDS011;10195;50.868;4.382;2024-01-25T04:47:08;57.83;;;8.67;;
20069;SDS011;10195;50.868;4.382;2024-01-25T04:49:34;52.00;;;7.80;;
20069;SDS011;10195;50.868;4.382;2024-01-25T04:52:00;56.30;;;8.37;;
20069;SDS011;10195;50.868;4.382;2024-01-25T04:54:26;64.60;;;9.23;;
20069;SDS011;10195;50.868;4.382;2024-01-25T04:56:52;66.63;;;9.23;;
20069;SDS011;10195;50.868;4.382;2024-01-25T04:59:18;60.07;;;8.33;;
20069;SDS011;10195;50.868;4.382;2024-01-25T05:01:43;58.47;;;8.27;;
20069;SDS011;10195;50.868;4.382;2024-01-25T05:04:09;66.50;;;8.27;;
20069;SDS011;10195;50.868;4.382;2024-01-25T05:06:34;42.73;;;7.77;;
20069;SDS011;10195;50.868;4.382;2024-01-25T05:09:01;56.00;;;7.60;;
20069;SDS011;10195;50.868;4.382;2024-01-25T05:11:26;53.77;;;8.53;;
20069;SDS011;10195;50.868;4.382;2024-01-25T05:13:52;49.97;;;7.40;;
20069;SDS011;10195;50.868;4.382;2024-01-25T05:16:17;55.70;;;8.37;;
20069;SDS011;10195;50.868;4.382;2024-01-25T05:18:43;74.47;;;9.30;;
20069;SDS011;10195;50.868;4.382;2024-01-25T05:21:09;47.33;;;7.70;;
20069;SDS011;10195;50.868;4.382;2024-01-25T05:23:34;54.00;;;8.70;;
20069;SDS011;10195;50.868;4.382;2024-01-25T05:26:01;74.47;;;8.83;;
20069;SDS011;10195;50.868;4.382;2024-01-25T05:28:27;63.17;;;8.10;;
20069;SDS011;10195;50.868;4.382;2024-01-25T05:30:53;67.03;;;8.10;;
20069;SDS011;10195;50.868;4.382;2024-01-25T05:33:18;60.17;;;7.43;;
20069;SDS011;10195;50.868;4.382;2024-01-25T05:35:44;59.00;;;8.00;;
20069;SDS011;10195;50.868;4.382;2024-01-25T05:38:09;66.53;;;8.97;;
20069;SDS011;10195;50.868;4.382;2024-01-25T05:40:35;75.50;;;9.80;;
20069;SDS011;10195;50.868;4.382;2024-01-25T05:43:00;59.07;;;8.33;;
20069;SDS011;10195;50.868;4.382;2024-01-25T05:45:26;71.20;;;8.40;;
20069;SDS011;10195;50.868;4.382;2024-01-25T05:47:52;76.27;;;10.07;;
20069;SDS011;10195;50.868;4.382;2024-01-25T05:50:18;72.70;;;10.17;;
20069;SDS011;10195;50.868;4.382;2024-01-25T05:52:44;74.53;;;9.30;;
20069;SDS011;10195;50.868;4.382;2024-01-25T05:55:09;67.27;;;8.77;;
20069;SDS011;10195;50.868;4.382;2024-01-25T05:57:36;69.23;;;9.77;;
20069;SDS011;10195;50.868;4.382;2024-01-25T06:00:02;70.00;;;9.33;;
20069;SDS011;10195;50.868;4.382;2024-01-25T06:02:30;62.93;;;9.30;;
20069;SDS011;10195;50.868;4.382;2024-01-25T06:04:56;79.07;;;9.73;;
20069;SDS011;10195;50.868;4.382;2024-01-25T06:07:23;73.80;;;9.27;;
20069;SDS011;10195;50.868;4.382;2024-01-25T06:09:49;77.23;;;9.70;;
20069;SDS011;10195;50.868;4.382;2024-01-25T06:12:15;63.93;;;9.93;;
20069;SDS011;10195;50.868;4.382;2024-01-25T06:14:41;67.40;;;9.37;;
20069;SDS011;10195;50.868;4.382;2024-01-25T06:17:07;71.53;;;9.47;;
20069;SDS011;10195;50.868;4.382;2024-01-25T06:19:33;75.67;;;9.33;;
20069;SDS011;10195;50.868;4.382;2024-01-25T06:21:59;67.00;;;10.23;;
20069;SDS011;10195;50.868;4.382;2024-01-25T06:24:25;68.37;;;9.53;;
20069;SDS011;10195;50.868;4.382;2024-01-25T06:26:50;81.13;;;11.77;;
20069;SDS011;10195;50.868;4.382;2024-01-25T06:29:17;81.47;;;10.70;;
20069;SDS011;10195;50.868;4.382;2024-01-25T06:31:43;86.27;;;11.50;;
20069;SDS011;10195;50.868;4.382;2024-01-25T06:34:09;75.53;;;11.37;;
20069;SDS011;10195;50.868;4.382;2024-01-25T06:36:35;83.47;;;11.40;;
20069;SDS011;10195;50.868;4.382;2024-01-25T06:39:01;73.40;;;10.80;;
20069;SDS011;10195;50.868;4.382;2024-01-25T06:41:26;67.63;;;10.33;;
20069;SDS011;10195;50.868;4.382;2024-01-25T06:43:52;72.97;;;10.90;;
20069;SDS011;10195;50.868;4.382;2024-01-25T06:46:17;71.67;;;9.93;;
20069;SDS011;10195;50.868;4.382;2024-01-25T06:48:43;75.20;;;10.77;;
20069;SDS011;10195;50.868;4.382;2024-01-25T06:51:09;81.17;;;11.20;;
20069;SDS011;10195;50.868;4.382;2024-01-25T06:53:34;75.33;;;12.03;;
20069;SDS011;10195;50.868;4.382;2024-01-25T06:56:00;75.80;;;12.47;;
20069;SDS011;10195;50.868;4.382;2024-01-25T06:58:26;81.30;;;12.77;;
20069;SDS011;10195;50.868;4.382;2024-01-25T07:00:51;79.67;;;12.30;;
20069;SDS011;10195;50.868;4.382;2024-01-25T07:03:18;73.40;;;11.90;;
20069;SDS011;10195;50.868;4.382;2024-01-25T07:05:43;68.47;;;12.33;;
20069;SDS011;10195;50.868;4.382;2024-01-25T07:08:09;71.97;;;12.83;;
20069;SDS011;10195;50.868;4.382;2024-01-25T07:10:38;79.17;;;13.87;;
20069;SDS011;10195;50.868;4.382;2024-01-25T07:13:04;66.90;;;13.23;;
20069;SDS011;10195;50.868;4.382;2024-01-25T07:15:30;71.73;;;14.37;;
20069;SDS011;10195;50.868;4.382;2024-01-25T07:17:56;70.80;;;13.90;;
20069;SDS011;10195;50.868;4.382;2024-01-25T07:20:21;69.47;;;15.20;;
20069;SDS011;10195;50.868;4.382;2024-01-25T07:22:47;75.27;;;14.10;;
20069;SDS011;10195;50.868;4.382;2024-01-25T07:25:13;62.57;;;14.77;;
20069;SDS011;10195;50.868;4.382;2024-01-25T07:27:39;81.60;;;15.33;;
20069;SDS011;10195;50.868;4.382;2024-01-25T07:30:04;56.77;;;13.03;;
20069;SDS011;10195;50.868;4.382;2024-01-25T07:32:33;70.87;;;15.23;;
20069;SDS011;10195;50.868;4.382;2024-01-25T07:35:00;65.07;;;13.83;;
20069;SDS011;10195;50.868;4.382;2024-01-25T07:37:26;63.33;;;13.97;;
20069;SDS011;10195;50.868;4.382;2024-01-25T07:39:51;70.60;;;16.77;;
20069;SDS011;10195;50.868;4.382;2024-01-25T07:42:17;87.27;;;17.27;;
20069;SDS011;10195;50.868;4.382;2024-01-25T07:44:43;79.50;;;17.77;;
20069;SDS011;10195;50.868;4.382;2024-01-25T07:47:09;79.33;;;16.67;;
20069;SDS011;10195;50.868;4.382;2024-01-25T07:49:35;73.50;;;16.77;;
20069;SDS011;10195;50.868;4.382;2024-01-25T07:52:00;77.60;;;16.60;;
20069;SDS011;10195;50.868;4.382;2024-01-25T07:54:26;69.93;;;14.97;;
20069;SDS011;10195;50.868;4.382;2024-01-25T07:56:51;49.70;;;15.07;;
20069;SDS011;10195;50.868;4.382;2024-01-25T07:59:17;67.30;;;16.60;;
20069;SDS011;10195;50.868;4.382;2024-01-25T08:01:43;60.57;;;15.47;;
20069;SDS011;10195;50.868;4.382;2024-01-25T08:04:08;66.17;;;16.93;;
20069;SDS011;10195;50.868;4.382;2024-01-25T08:06:34;85.00;;;17.67;;
20069;SDS011;10195;50.868;4.382;2024-01-25T08:09:00;52.13;;;17.73;;
20069;SDS011;10195;50.868;4.382;2024-01-25T08:11:25;52.20;;;14.77;;
20069;SDS011;10195;50.868;4.382;2024-01-25T08:13:51;52.17;;;14.67;;
20069;SDS011;10195;50.868;4.382;2024-01-25T08:16:17;49.60;;;14.07;;
20069;SDS011;10195;50.868;4.382;2024-01-25T08:18:46;45.13;;;14.40;;
20069;SDS011;10195;50.868;4.382;2024-01-25T08:21:12;46.23;;;15.17;;
20069;SDS011;10195;50.868;4.382;2024-01-25T08:23:38;49.27;;;14.80;;
20069;SDS011;10195;50.868;4.382;2024-01-25T08:26:04;42.50;;;14.70;;
20069;SDS011;10195;50.868;4.382;2024-01-25T08:28:30;47.87;;;15.10;;
20069;SDS011;10195;50.868;4.382;2024-01-25T08:30:56;48.27;;;15.40;;
20069;SDS011;10195;50.868;4.382;2024-01-25T08:33:22;43.13;;;15.47;;
20069;SDS011;10195;50.868;4.382;2024-01-25T08:35:50;42.43;;;14.70;;
20069;SDS011;10195;50.868;4.382;2024-01-25T08:38:16;39.10;;;15.03;;
20069;SDS011;10195;50.868;4.382;2024-01-25T08:40:41;52.90;;;19.93;;
20069;SDS011;10195;50.868;4.382;2024-01-25T08:43:07;45.70;;;15.87;;
20069;SDS011;10195;50.868;4.382;2024-01-25T08:45:33;41.80;;;14.63;;
20069;SDS011;10195;50.868;4.382;2024-01-25T08:47:58;38.70;;;14.47;;
20069;SDS011;10195;50.868;4.382;2024-01-25T08:50:25;33.73;;;13.67;;
20069;SDS011;10195;50.868;4.382;2024-01-25T08:52:50;46.67;;;15.00;;
20069;SDS011;10195;50.868;4.382;2024-01-25T08:55:16;40.37;;;14.50;;
20069;SDS011;10195;50.868;4.382;2024-01-25T08:57:42;46.57;;;14.97;;
20069;SDS011;10195;50.868;4.382;2024-01-25T09:00:07;33.27;;;13.03;;
20069;SDS011;10195;50.868;4.382;2024-01-25T09:02:35;38.53;;;14.23;;
20069;SDS011;10195;50.868;4.382;2024-01-25T09:05:02;37.13;;;14.50;;
20069;SDS011;10195;50.868;4.382;2024-01-25T09:07:28;32.13;;;13.57;;
20069;SDS011;10195;50.868;4.382;2024-01-25T09:09:57;29.33;;;13.07;;
20069;SDS011;10195;50.868;4.382;2024-01-25T09:12:23;39.73;;;14.10;;
20069;SDS011;10195;50.868;4.382;2024-01-25T09:14:49;35.43;;;13.23;;
20069;SDS011;10195;50.868;4.382;2024-01-25T09:17:14;32.03;;;12.80;;
20069;SDS011;10195;50.868;4.382;2024-01-25T09:19:46;34.30;;;13.93;;
20069;SDS011;10195;50.868;4.382;2024-01-25T09:22:16;35.90;;;13.53;;
20069;SDS011;10195;50.868;4.382;2024-01-25T09:24:44;29.53;;;12.27;;
20069;SDS011;10195;50.868;4.382;2024-01-25T09:27:11;30.80;;;13.10;;
20069;SDS011;10195;50.868;4.382;2024-01-25T09:29:37;36.70;;;12.90;;
20069;SDS011;10195;50.868;4.382;2024-01-25T09:32:05;35.97;;;12.63;;
20069;SDS011;10195;50.868;4.382;2024-01-25T09:34:37;34.30;;;13.00;;
20069;SDS011;10195;50.868;4.382;2024-01-25T09:37:04;35.10;;;13.43;;
20069;SDS011;10195;50.868;4.382;2024-01-25T09:39:31;37.87;;;13.20;;
20069;SDS011;10195;50.868;4.382;2024-01-25T09:41:57;41.30;;;15.57;;
20069;SDS011;10195;50.868;4.382;2024-01-25T09:44:26;44.57;;;15.97;;
20069;SDS011;10195;50.868;4.382;2024-01-25T09:46:51;46.13;;;16.30;;
20069;SDS011;10195;50.868;4.382;2024-01-25T09:49:17;50.53;;;16.93;;
20069;SDS011;10195;50.868;4.382;2024-01-25T09:51:43;50.37;;;16.73;;
20069;SDS011;10195;50.868;4.382;2024-01-25T09:54:09;57.70;;;19.37;;
20069;SDS011;10195;50.868;4.382;2024-01-25T09:56:35;66.73;;;20.87;;
20069;SDS011;10195;50.868;4.382;2024-01-25T09:59:02;47.40;;;17.57;;
20069;SDS011;10195;50.868;4.382;2024-01-25T10:01:29;56.00;;;19.10;;
20069;SDS011;10195;50.868;4.382;2024-01-25T10:03:55;65.73;;;19.83;;
20069;SDS011;10195;50.868;4.382;2024-01-25T10:06:21;48.87;;;18.83;;
20069;SDS011;10195;50.868;4.382;2024-01-25T10:08:47;59.00;;;19.77;;
20069;SDS011;10195;50.868;4.382;2024-01-25T10:11:14;63.03;;;19.23;;
20069;SDS011;10195;50.868;4.382;2024-01-25T10:13:48;51.70;;;18.53;;
20069;SDS011;10195;50.868;4.382;2024-01-25T10:16:19;48.37;;;17.47;;
20069;SDS011;10195;50.868;4.382;2024-01-25T10:18:47;57.27;;;17.70;;
20069;SDS011;10195;50.868;4.382;2024-01-25T10:21:14;57.40;;;18.93;;
20069;SDS011;10195;50.868;4.382;2024-01-25T10:23:41;53.40;;;17.70;;
20069;SDS011;10195;50.868;4.382;2024-01-25T10:26:08;59.33;;;17.83;;
20069;SDS011;10195;50.868;4.382;2024-01-25T10:28:35;53.43;;;17.20;;
20069;SDS011;10195;50.868;4.382;2024-01-25T10:31:01;57.33;;;19.60;;
20069;SDS011;10195;50.868;4.382;2024-01-25T10:33:29;59.60;;;18.67;;
20069;SDS011;10195;50.868;4.382;2024-01-25T10:35:55;64.90;;;17.80;;
20069;SDS011;10195;50.868;4.382;2024-01-25T10:38:31;54.40;;;16.17;;
20069;SDS011;10195;50.868;4.382;2024-01-25T10:41:01;47.37;;;14.97;;
20069;SDS011;10195;50.868;4.382;2024-01-25T10:43:28;55.83;;;15.90;;
20069;SDS011;10195;50.868;4.382;2024-01-25T10:45:56;52.17;;;17.07;;
20069;SDS011;10195;50.868;4.382;2024-01-25T10:48:24;53.83;;;14.00;;
20069;SDS011;10195;50.868;4.382;2024-01-25T10:50:51;46.37;;;14.17;;
20069;SDS011;10195;50.868;4.382;2024-01-25T10:53:18;50.53;;;13.80;;
20069;SDS011;10195;50.868;4.382;2024-01-25T10:55:44;46.00;;;13.90;;
20069;SDS011;10195;50.868;4.382;2024-01-25T10:58:12;44.13;;;13.27;;
20069;SDS011;10195;50.868;4.382;2024-01-25T11:00:39;37.87;;;13.03;;
20069;SDS011;10195;50.868;4.382;2024-01-25T11:03:05;50.33;;;13.70;;
20069;SDS011;10195;50.868;4.382;2024-01-25T11:05:31;54.30;;;14.90;;
20069;SDS011;10195;50.868;4.382;2024-01-25T11:07:57;43.03;;;13.13;;
20069;SDS011;10195;50.868;4.382;2024-01-25T11:10:27;49.67;;;14.40;;
20069;SDS011;10195;50.868;4.382;2024-01-25T11:13:00;47.47;;;12.80;;
20069;SDS011;10195;50.868;4.382;2024-01-25T11:15:30;55.60;;;12.77;;
20069;SDS011;10195;50.868;4.382;2024-01-25T11:17:57;40.70;;;11.80;;
20069;SDS011;10195;50.868;4.382;2024-01-25T11:20:23;50.70;;;12.40;;
20069;SDS011;10195;50.868;4.382;2024-01-25T11:23:01;41.30;;;11.83;;
20069;SDS011;10195;50.868;4.382;2024-01-25T11:25:30;39.40;;;13.20;;
20069;SDS011;10195;50.868;4.382;2024-01-25T11:27:58;48.03;;;12.70;;
20069;SDS011;10195;50.868;4.382;2024-01-25T11:30:25;38.97;;;11.53;;
20069;SDS011;10195;50.868;4.382;2024-01-25T11:32:51;40.60;;;10.97;;
20069;SDS011;10195;50.868;4.382;2024-01-25T11:35:21;40.33;;;10.70;;
20069;SDS011;10195;50.868;4.382;2024-01-25T11:37:47;48.87;;;11.47;;
20069;SDS011;10195;50.868;4.382;2024-01-25T11:40:14;46.43;;;11.67;;
20069;SDS011;10195;50.868;4.382;2024-01-25T11:42:44;40.23;;;12.20;;
20069;SDS011;10195;50.868;4.382;2024-01-25T11:45:12;37.67;;;10.97;;
20069;SDS011;10195;50.868;4.382;2024-01-25T11:47:39;35.57;;;11.40;;
20069;SDS011;10195;50.868;4.382;2024-01-25T11:50:06;38.07;;;12.37;;
20069;SDS011;10195;50.868;4.382;2024-01-25T11:52:33;41.13;;;10.63;;
20069;SDS011;10195;50.868;4.382;2024-01-25T11:55:02;39.40;;;10.87;;
20069;SDS011;10195;50.868;4.382;2024-01-25T11:57:32;41.63;;;10.50;;
20069;SDS011;10195;50.868;4.382;2024-01-25T12:00:02;39.67;;;11.20;;
20069;SDS011;10195;50.868;4.382;2024-01-25T12:02:30;36.57;;;11.07;;
20069;SDS011;10195;50.868;4.382;2024-01-25T12:04:56;31.60;;;10.73;;
20069;SDS011;10195;50.868;4.382;2024-01-25T12:07:22;39.37;;;10.63;;
20069;SDS011;10195;50.868;4.382;2024-01-25T12:09:58;43.63;;;10.97;;
20069;SDS011;10195;50.868;4.382;2024-01-25T12:12:31;49.60;;;10.77;;
20069;SDS011;10195;50.868;4.382;2024-01-25T12:15:00;39.33;;;11.50;;
20069;SDS011;10195;50.868;4.382;2024-01-25T12:17:28;38.03;;;10.87;;
20069;SDS011;10195;50.868;4.382;2024-01-25T12:19:58;34.70;;;10.67;;
20069;SDS011;10195;50.868;4.382;2024-01-25T12:22:24;40.67;;;10.03;;
20069;SDS011;10195;50.868;4.382;2024-01-25T12:24:53;37.13;;;10.33;;
20069;SDS011;10195;50.868;4.382;2024-01-25T12:27:20;42.90;;;11.87;;
20069;SDS011;10195;50.868;4.382;2024-01-25T12:29:47;33.43;;;10.97;;
20069;SDS011;10195;50.868;4.382;2024-01-25T12:32:13;30.77;;;10.77;;
20069;SDS011;10195;50.868;4.382;2024-01-25T12:34:39;44.13;;;12.03;;
20069;SDS011;10195;50.868;4.382;2024-01-25T12:37:06;33.87;;;11.80;;
20069;SDS011;10195;50.868;4.382;2024-01-25T12:39:33;30.93;;;12.13;;
20069;SDS011;10195;50.868;4.382;2024-01-25T12:41:59;24.43;;;10.87;;
20069;SDS011;10195;50.868;4.382;2024-01-25T12:44:25;23.67;;;10.67;;
20069;SDS011;10195;50.868;4.382;2024-01-25T12:46:50;21.33;;;10.00;;
20069;SDS011;10195;50.868;4.382;2024-01-25T12:49:17;26.30;;;10.30;;
20069;SDS011;10195;50.868;4.382;2024-01-25T12:51:42;31.70;;;11.23;;
20069;SDS011;10195;50.868;4.382;2024-01-25T12:54:08;35.73;;;11.97;;
20069;SDS011;10195;50.868;4.382;2024-01-25T12:56:34;33.17;;;11.50;;
20069;SDS011;10195;50.868;4.382;2024-01-25T12:59:00;25.00;;;9.73;;
20069;SDS011;10195;50.868;4.382;2024-01-25T13:01:26;23.47;;;9.87;;
20069;SDS011;10195;50.868;4.382;2024-01-25T13:03:52;24.17;;;9.67;;
20069;SDS011;10195;50.868;4.382;2024-01-25T13:06:18;25.30;;;9.00;;
20069;SDS011;10195;50.868;4.382;2024-01-25T13:08:43;19.67;;;8.53;;
20069;SDS011;10195;50.868;4.382;2024-01-25T13:11:09;16.40;;;8.23;;
20069;SDS011;10195;50.868;4.382;2024-01-25T13:13:36;15.83;;;7.23;;
20069;SDS011;10195;50.868;4.382;2024-01-25T13:16:02;17.63;;;7.13;;
20069;SDS011;10195;50.868;4.382;2024-01-25T13:18:27;18.30;;;7.60;;
20069;SDS011;10195;50.868;4.382;2024-01-25T13:20:53;16.20;;;6.93;;
20069;SDS011;10195;50.868;4.382;2024-01-25T13:23:19;16.47;;;7.33;;
20069;SDS011;10195;50.868;4.382;2024-01-25T13:25:44;18.87;;;7.20;;
20069;SDS011;10195;50.868;4.382;2024-01-25T13:28:10;14.30;;;7.20;;
20069;SDS011;10195;50.868;4.382;2024-01-25T13:30:36;19.20;;;7.03;;
20069;SDS011;10195;50.868;4.382;2024-01-25T13:33:02;15.13;;;7.03;;
20069;SDS011;10195;50.868;4.382;2024-01-25T13:35:27;13.83;;;6.90;;
20069;SDS011;10195;50.868;4.382;2024-01-25T13:37:53;18.73;;;7.07;;
20069;SDS011;10195;50.868;4.382;2024-01-25T13:40:19;14.07;;;7.47;;
20069;SDS011;10195;50.868;4.382;2024-01-25T13:42:45;13.87;;;7.57;;
20069;SDS011;10195;50.868;4.382;2024-01-25T13:45:10;15.53;;;6.90;;
20069;SDS011;10195;50.868;4.382;2024-01-25T13:47:36;15.00;;;7.40;;
20069;SDS011;10195;50.868;4.382;2024-01-25T13:50:02;20.27;;;9.40;;
20069;SDS011;10195;50.868;4.382;2024-01-25T13:52:29;12.93;;;7.57;;
20069;SDS011;10195;50.868;4.382;2024-01-25T13:54:55;18.63;;;7.90;;
20069;SDS011;10195;50.868;4.382;2024-01-25T13:57:20;14.83;;;8.30;;
20069;SDS011;10195;50.868;4.382;2024-01-25T13:59:49;11.60;;;7.30;;
20069;SDS011;10195;50.868;4.382;2024-01-25T14:02:16;17.17;;;8.43;;
20069;SDS011;10195;50.868;4.382;2024-01-25T14:04:44;18.17;;;9.20;;
20069;SDS011;10195;50.868;4.382;2024-01-25T14:07:10;14.87;;;9.07;;
20069;SDS011;10195;50.868;4.382;2024-01-25T14:09:35;15.37;;;10.27;;
20069;SDS011;10195;50.868;4.382;2024-01-25T14:12:03;18.00;;;11.40;;
20069;SDS011;10195;50.868;4.382;2024-01-25T14:14:29;21.10;;;11.70;;
20069;SDS011;10195;50.868;4.382;2024-01-25T14:16:54;22.67;;;11.77;;
20069;SDS011;10195;50.868;4.382;2024-01-25T14:19:20;20.43;;;12.63;;
20069;SDS011;10195;50.868;4.382;2024-01-25T14:21:46;24.07;;;13.63;;
20069;SDS011;10195;50.868;4.382;2024-01-25T14:24:13;20.10;;;14.37;;